sensor_id;sensor_type;location;lat;lon;timestamp;temperature;humidity
17442;DHT22;8838;50.144;8.176;2023-08-31T00:01:36;12.00;99.90
17442;DHT22;8838;50.144;8.176;2023-08-31T00:04:02;11.90;99.90
17442;DHT22;8838;50.144;8.176;2023-08-31T00:06:30;11.80;99.90
17442;DHT22;8838;50.144;8.176;2023-08-31T00:08:56;11.70;99.90
17442;DHT22;8838;50.144;8.176;2023-08-31T00:11:24;11.70;99.90
17442;DHT22;8838;50.144;8.176;2023-08-31T00:13:51;11.70;99.90
17442;DHT22;8838;50.144;8.176;2023-08-31T00:16:24;11.80;99.90
17442;DHT22;8838;50.144;8.176;2023-08-31T00:18:51;11.70;99.90
17442;DHT22;8838;50.144;8.176;2023-08-31T00:21:17;11.80;99.90
17442;DHT22;8838;50.144;8.176;2023-08-31T00:23:44;11.80;99.90
17442;DHT22;8838;50.144;8.176;2023-08-31T00:26:11;11.80;99.90
17442;DHT22;8838;50.144;8.176;2023-08-31T00:28:38;11.70;99.90
17442;DHT22;8838;50.144;8.176;2023-08-31T00:31:05;11.60;99.90
17442;DHT22;8838;50.144;8.176;2023-08-31T00:33:33;11.60;99.90
17442;DHT22;8838;50.144;8.176;2023-08-31T00:36:00;11.60;99.90
17442;DHT22;8838;50.144;8.176;2023-08-31T00:38:28;11.60;99.90
17442;DHT22;8838;50.144;8.176;2023-08-31T00:40:55;11.50;99.90
17442;DHT22;8838;50.144;8.176;2023-08-31T00:43:23;11.40;99.90
17442;DHT22;8838;50.144;8.176;2023-08-31T00:45:51;11.30;99.90
17442;DHT22;8838;50.144;8.176;2023-08-31T00:48:22;11.30;99.90
17442;DHT22;8838;50.144;8.176;2023-08-31T00:50:51;11.30;99.90
17442;DHT22;8838;50.144;8.176;2023-08-31T00:53:18;11.30;99.90
17442;DHT22;8838;50.144;8.176;2023-08-31T00:55:45;11.30;99.90
17442;DHT22;8838;50.144;8.176;2023-08-31T00:58:13;11.30;99.90
17442;DHT22;8838;50.144;8.176;2023-08-31T01:00:45;11.20;99.90
17442;DHT22;8838;50.144;8.176;2023-08-31T01:03:24;11.20;99.90
17442;DHT22;8838;50.144;8.176;2023-08-31T01:06:01;11.20;99.90
17442;DHT22;8838;50.144;8.176;2023-08-31T01:08:43;11.20;99.90
17442;DHT22;8838;50.144;8.176;2023-08-31T01:11:17;11.10;99.90
17442;DHT22;8838;50.144;8.176;2023-08-31T01:13:51;11.10;99.90
17442;DHT22;8838;50.144;8.176;2023-08-31T01:16:18;11.20;99.90
17442;DHT22;8838;50.144;8.176;2023-08-31T01:18:46;11.10;99.90
17442;DHT22;8838;50.144;8.176;2023-08-31T01:21:21;11.20;99.90
17442;DHT22;8838;50.144;8.176;2023-08-31T01:23:53;11.30;99.90
17442;DHT22;8838;50.144;8.176;2023-08-31T01:26:20;11.40;99.90
17442;DHT22;8838;50.144;8.176;2023-08-31T01:28:47;11.30;99.90
17442;DHT22;8838;50.144;8.176;2023-08-31T01:31:15;11.30;99.90
17442;DHT22;8838;50.144;8.176;2023-08-31T01:33:42;11.30;99.90
17442;DHT22;8838;50.144;8.176;2023-08-31T01:36:13;11.10;99.90
17442;DHT22;8838;50.144;8.176;2023-08-31T01:38:45;11.10;99.90
17442;DHT22;8838;50.144;8.176;2023-08-31T01:41:17;11.00;99.90
17442;DHT22;8838;50.144;8.176;2023-08-31T01:43:44;11.00;99.90
17442;DHT22;8838;50.144;8.176;2023-08-31T01:46:13;11.00;99.90
17442;DHT22;8838;50.144;8.176;2023-08-31T01:48:40;11.10;99.90
17442;DHT22;8838;50.144;8.176;2023-08-31T01:51:07;11.00;99.90
17442;DHT22;8838;50.144;8.176;2023-08-31T01:53:34;11.00;99.90
17442;DHT22;8838;50.144;8.176;2023-08-31T01:56:01;11.10;99.90
17442;DHT22;8838;50.144;8.176;2023-08-31T01:58:31;11.10;99.90
17442;DHT22;8838;50.144;8.176;2023-08-31T02:00:58;11.10;99.90
17442;DHT22;8838;50.144;8.176;2023-08-31T02:03:27;11.10;99.90
17442;DHT22;8838;50.144;8.176;2023-08-31T02:05:54;11.20;99.90
17442;DHT22;8838;50.144;8.176;2023-08-31T02:08:20;11.10;99.90
17442;DHT22;8838;50.144;8.176;2023-08-31T02:10:47;11.00;99.90
17442;DHT22;8838;50.144;8.176;2023-08-31T02:13:14;11.00;99.90
17442;DHT22;8838;50.144;8.176;2023-08-31T02:15:45;11.00;99.90
17442;DHT22;8838;50.144;8.176;2023-08-31T02:18:12;11.00;99.90
17442;DHT22;8838;50.144;8.176;2023-08-31T02:20:39;11.10;99.90
17442;DHT22;8838;50.144;8.176;2023-08-31T02:23:06;11.10;99.90
17442;DHT22;8838;50.144;8.176;2023-08-31T02:25:35;11.20;99.90
17442;DHT22;8838;50.144;8.176;2023-08-31T02:28:01;11.20;99.90
17442;DHT22;8838;50.144;8.176;2023-08-31T02:30:28;11.20;99.90
17442;DHT22;8838;50.144;8.176;2023-08-31T02:32:56;11.10;99.90
17442;DHT22;8838;50.144;8.176;2023-08-31T02:35:23;11.10;99.90
17442;DHT22;8838;50.144;8.176;2023-08-31T02:37:50;11.10;99.90
17442;DHT22;8838;50.144;8.176;2023-08-31T02:40:17;11.20;99.90
17442;DHT22;8838;50.144;8.176;2023-08-31T02:42:46;11.30;99.90
17442;DHT22;8838;50.144;8.176;2023-08-31T02:45:13;11.20;99.90
17442;DHT22;8838;50.144;8.176;2023-08-31T02:47:41;11.20;99.90
17442;DHT22;8838;50.144;8.176;2023-08-31T02:50:09;11.20;99.90
17442;DHT22;8838;50.144;8.176;2023-08-31T02:52:36;11.30;99.90
17442;DHT22;8838;50.144;8.176;2023-08-31T02:55:03;11.30;99.90
17442;DHT22;8838;50.144;8.176;2023-08-31T02:57:30;11.30;99.90
17442;DHT22;8838;50.144;8.176;2023-08-31T02:59:57;11.30;99.90
17442;DHT22;8838;50.144;8.176;2023-08-31T03:02:26;11.20;99.90
17442;DHT22;8838;50.144;8.176;2023-08-31T03:04:54;11.30;99.90
17442;DHT22;8838;50.144;8.176;2023-08-31T03:07:23;11.40;99.90
17442;DHT22;8838;50.144;8.176;2023-08-31T03:09:49;11.40;99.90
17442;DHT22;8838;50.144;8.176;2023-08-31T03:12:17;11.40;99.90
17442;DHT22;8838;50.144;8.176;2023-08-31T03:14:43;11.30;99.90
17442;DHT22;8838;50.144;8.176;2023-08-31T03:17:10;11.30;99.90
17442;DHT22;8838;50.144;8.176;2023-08-31T03:19:37;11.20;99.90
17442;DHT22;8838;50.144;8.176;2023-08-31T03:22:04;11.20;99.90
17442;DHT22;8838;50.144;8.176;2023-08-31T03:24:33;11.20;99.90
17442;DHT22;8838;50.144;8.176;2023-08-31T03:26:59;11.20;99.90
17442;DHT22;8838;50.144;8.176;2023-08-31T03:29:29;11.30;99.90
17442;DHT22;8838;50.144;8.176;2023-08-31T03:31:57;11.20;99.90
17442;DHT22;8838;50.144;8.176;2023-08-31T03:34:24;11.20;99.90
17442;DHT22;8838;50.144;8.176;2023-08-31T03:36:54;11.20;99.90
17442;DHT22;8838;50.144;8.176;2023-08-31T03:39:21;11.10;99.90
17442;DHT22;8838;50.144;8.176;2023-08-31T03:41:49;11.20;99.90
17442;DHT22;8838;50.144;8.176;2023-08-31T03:44:16;11.20;99.90
17442;DHT22;8838;50.144;8.176;2023-08-31T03:46:43;11.20;99.90
17442;DHT22;8838;50.144;8.176;2023-08-31T03:49:10;11.20;99.90
17442;DHT22;8838;50.144;8.176;2023-08-31T03:51:36;11.20;99.90
17442;DHT22;8838;50.144;8.176;2023-08-31T03:54:03;11.20;99.90
17442;DHT22;8838;50.144;8.176;2023-08-31T03:56:30;11.20;99.90
17442;DHT22;8838;50.144;8.176;2023-08-31T03:58:58;11.30;99.90
17442;DHT22;8838;50.144;8.176;2023-08-31T04:01:25;11.30;99.90
17442;DHT22;8838;50.144;8.176;2023-08-31T04:03:54;11.20;99.90
17442;DHT22;8838;50.144;8.176;2023-08-31T04:06:21;11.10;99.90
17442;DHT22;8838;50.144;8.176;2023-08-31T04:08:48;11.00;99.90
17442;DHT22;8838;50.144;8.176;2023-08-31T04:11:15;11.00;99.90
17442;DHT22;8838;50.144;8.176;2023-08-31T04:13:41;10.90;99.90
17442;DHT22;8838;50.144;8.176;2023-08-31T04:16:10;10.90;99.90
17442;DHT22;8838;50.144;8.176;2023-08-31T04:18:36;10.80;99.90
17442;DHT22;8838;50.144;8.176;2023-08-31T04:21:03;10.90;99.90
17442;DHT22;8838;50.144;8.176;2023-08-31T04:23:30;10.80;99.90
17442;DHT22;8838;50.144;8.176;2023-08-31T04:25:56;10.80;99.90
17442;DHT22;8838;50.144;8.176;2023-08-31T04:28:27;10.80;99.90
17442;DHT22;8838;50.144;8.176;2023-08-31T04:30:54;10.90;99.90
17442;DHT22;8838;50.144;8.176;2023-08-31T04:33:22;10.90;99.90
17442;DHT22;8838;50.144;8.176;2023-08-31T04:35:49;10.80;99.90
17442;DHT22;8838;50.144;8.176;2023-08-31T04:38:16;10.80;99.90
17442;DHT22;8838;50.144;8.176;2023-08-31T04:40:42;10.70;99.90
17442;DHT22;8838;50.144;8.176;2023-08-31T04:43:10;10.70;99.90
17442;DHT22;8838;50.144;8.176;2023-08-31T04:45:36;10.70;99.90
17442;DHT22;8838;50.144;8.176;2023-08-31T04:48:03;10.70;99.90
17442;DHT22;8838;50.144;8.176;2023-08-31T04:50:32;10.70;99.90
17442;DHT22;8838;50.144;8.176;2023-08-31T04:52:58;10.70;99.90
17442;DHT22;8838;50.144;8.176;2023-08-31T04:55:25;10.70;99.90
17442;DHT22;8838;50.144;8.176;2023-08-31T04:57:52;10.80;99.90
17442;DHT22;8838;50.144;8.176;2023-08-31T05:00:19;10.70;99.90
17442;DHT22;8838;50.144;8.176;2023-08-31T05:02:46;10.80;99.90
17442;DHT22;8838;50.144;8.176;2023-08-31T05:05:13;10.80;99.90
17442;DHT22;8838;50.144;8.176;2023-08-31T05:07:41;10.80;99.90
17442;DHT22;8838;50.144;8.176;2023-08-31T05:10:09;10.80;99.90
17442;DHT22;8838;50.144;8.176;2023-08-31T05:12:37;10.80;99.90
17442;DHT22;8838;50.144;8.176;2023-08-31T05:15:04;10.90;99.90
17442;DHT22;8838;50.144;8.176;2023-08-31T05:17:31;10.80;99.90
17442;DHT22;8838;50.144;8.176;2023-08-31T05:19:58;10.90;99.90
17442;DHT22;8838;50.144;8.176;2023-08-31T05:22:24;10.90;99.90
17442;DHT22;8838;50.144;8.176;2023-08-31T05:24:53;10.90;99.90
17442;DHT22;8838;50.144;8.176;2023-08-31T05:27:19;10.80;99.90
17442;DHT22;8838;50.144;8.176;2023-08-31T05:29:46;10.80;99.90
17442;DHT22;8838;50.144;8.176;2023-08-31T05:32:13;10.90;99.90
17442;DHT22;8838;50.144;8.176;2023-08-31T05:34:40;11.00;99.90
17442;DHT22;8838;50.144;8.176;2023-08-31T05:37:06;11.00;99.90
17442;DHT22;8838;50.144;8.176;2023-08-31T05:39:33;11.00;99.90
17442;DHT22;8838;50.144;8.176;2023-08-31T05:42:02;11.10;99.90
17442;DHT22;8838;50.144;8.176;2023-08-31T05:44:28;11.20;99.90
17442;DHT22;8838;50.144;8.176;2023-08-31T05:46:55;11.20;99.90
17442;DHT22;8838;50.144;8.176;2023-08-31T05:49:22;11.20;99.90
17442;DHT22;8838;50.144;8.176;2023-08-31T05:51:51;11.30;99.90
17442;DHT22;8838;50.144;8.176;2023-08-31T05:54:18;11.40;99.90
17442;DHT22;8838;50.144;8.176;2023-08-31T05:56:44;11.50;99.90
17442;DHT22;8838;50.144;8.176;2023-08-31T05:59:14;11.60;99.90
17442;DHT22;8838;50.144;8.176;2023-08-31T06:01:43;11.60;99.90
17442;DHT22;8838;50.144;8.176;2023-08-31T06:04:10;11.70;99.90
17442;DHT22;8838;50.144;8.176;2023-08-31T06:06:36;11.80;99.90
17442;DHT22;8838;50.144;8.176;2023-08-31T06:09:04;11.90;99.90
17442;DHT22;8838;50.144;8.176;2023-08-31T06:11:31;11.90;99.90
17442;DHT22;8838;50.144;8.176;2023-08-31T06:13:58;12.00;99.90
17442;DHT22;8838;50.144;8.176;2023-08-31T06:16:26;12.00;99.90
17442;DHT22;8838;50.144;8.176;2023-08-31T06:18:53;12.00;99.90
17442;DHT22;8838;50.144;8.176;2023-08-31T06:21:20;12.00;99.90
17442;DHT22;8838;50.144;8.176;2023-08-31T06:23:47;11.80;99.90
17442;DHT22;8838;50.144;8.176;2023-08-31T06:26:13;11.80;99.90
17442;DHT22;8838;50.144;8.176;2023-08-31T06:28:40;11.90;99.90
17442;DHT22;8838;50.144;8.176;2023-08-31T06:31:07;11.90;99.90
17442;DHT22;8838;50.144;8.176;2023-08-31T06:33:35;12.00;99.90
17442;DHT22;8838;50.144;8.176;2023-08-31T06:36:02;12.10;99.90
17442;DHT22;8838;50.144;8.176;2023-08-31T06:38:29;12.20;99.90
17442;DHT22;8838;50.144;8.176;2023-08-31T06:40:56;12.20;99.90
17442;DHT22;8838;50.144;8.176;2023-08-31T06:43:24;12.30;99.90
17442;DHT22;8838;50.144;8.176;2023-08-31T06:45:52;12.50;99.90
17442;DHT22;8838;50.144;8.176;2023-08-31T06:48:19;12.70;99.90
17442;DHT22;8838;50.144;8.176;2023-08-31T06:50:48;13.00;99.90
17442;DHT22;8838;50.144;8.176;2023-08-31T06:53:15;13.10;99.90
17442;DHT22;8838;50.144;8.176;2023-08-31T06:55:41;13.20;99.90
17442;DHT22;8838;50.144;8.176;2023-08-31T06:58:08;13.50;99.90
17442;DHT22;8838;50.144;8.176;2023-08-31T07:00:35;13.60;99.90
17442;DHT22;8838;50.144;8.176;2023-08-31T07:03:02;13.70;99.90
17442;DHT22;8838;50.144;8.176;2023-08-31T07:05:33;13.90;99.90
17442;DHT22;8838;50.144;8.176;2023-08-31T07:08:03;13.80;99.90
17442;DHT22;8838;50.144;8.176;2023-08-31T07:10:30;13.70;99.90
17442;DHT22;8838;50.144;8.176;2023-08-31T07:12:57;13.40;99.90
17442;DHT22;8838;50.144;8.176;2023-08-31T07:15:24;13.20;99.90
17442;DHT22;8838;50.144;8.176;2023-08-31T07:17:50;13.10;99.90
17442;DHT22;8838;50.144;8.176;2023-08-31T07:20:17;13.00;99.90
17442;DHT22;8838;50.144;8.176;2023-08-31T07:22:44;12.90;99.90
17442;DHT22;8838;50.144;8.176;2023-08-31T07:25:12;12.80;99.90
17442;DHT22;8838;50.144;8.176;2023-08-31T07:27:40;12.80;99.90
17442;DHT22;8838;50.144;8.176;2023-08-31T07:30:07;12.80;99.90
17442;DHT22;8838;50.144;8.176;2023-08-31T07:32:35;12.80;99.90
17442;DHT22;8838;50.144;8.176;2023-08-31T07:35:03;13.00;99.90
17442;DHT22;8838;50.144;8.176;2023-08-31T07:37:30;12.90;99.90
17442;DHT22;8838;50.144;8.176;2023-08-31T07:39:57;13.00;99.90
17442;DHT22;8838;50.144;8.176;2023-08-31T07:42:25;13.10;99.90
17442;DHT22;8838;50.144;8.176;2023-08-31T07:44:52;13.10;99.90
17442;DHT22;8838;50.144;8.176;2023-08-31T07:47:18;13.30;99.90
17442;DHT22;8838;50.144;8.176;2023-08-31T07:49:45;13.50;99.90
17442;DHT22;8838;50.144;8.176;2023-08-31T07:52:12;13.80;99.90
17442;DHT22;8838;50.144;8.176;2023-08-31T07:54:39;14.30;99.90
17442;DHT22;8838;50.144;8.176;2023-08-31T07:57:05;14.90;99.90
17442;DHT22;8838;50.144;8.176;2023-08-31T07:59:33;15.00;99.90
17442;DHT22;8838;50.144;8.176;2023-08-31T08:02:00;15.00;99.90
17442;DHT22;8838;50.144;8.176;2023-08-31T08:04:27;15.30;99.90
17442;DHT22;8838;50.144;8.176;2023-08-31T08:06:55;15.40;99.90
17442;DHT22;8838;50.144;8.176;2023-08-31T08:09:22;15.40;99.90
17442;DHT22;8838;50.144;8.176;2023-08-31T08:11:48;15.20;99.90
17442;DHT22;8838;50.144;8.176;2023-08-31T08:14:16;14.90;99.90
17442;DHT22;8838;50.144;8.176;2023-08-31T08:16:44;14.80;99.90
17442;DHT22;8838;50.144;8.176;2023-08-31T08:19:11;14.40;99.90
17442;DHT22;8838;50.144;8.176;2023-08-31T08:21:38;14.30;99.90
17442;DHT22;8838;50.144;8.176;2023-08-31T08:24:05;14.30;99.90
17442;DHT22;8838;50.144;8.176;2023-08-31T08:26:32;14.40;99.90
17442;DHT22;8838;50.144;8.176;2023-08-31T08:28:59;14.80;99.90
17442;DHT22;8838;50.144;8.176;2023-08-31T08:31:25;14.90;99.90
17442;DHT22;8838;50.144;8.176;2023-08-31T08:33:54;14.90;99.90
17442;DHT22;8838;50.144;8.176;2023-08-31T08:36:20;15.10;99.90
17442;DHT22;8838;50.144;8.176;2023-08-31T08:38:47;14.90;99.90
17442;DHT22;8838;50.144;8.176;2023-08-31T08:41:14;15.10;99.90
17442;DHT22;8838;50.144;8.176;2023-08-31T08:43:46;15.30;99.90
17442;DHT22;8838;50.144;8.176;2023-08-31T08:46:14;15.80;99.90
17442;DHT22;8838;50.144;8.176;2023-08-31T08:48:41;16.00;99.90
17442;DHT22;8838;50.144;8.176;2023-08-31T08:51:10;16.70;99.90
17442;DHT22;8838;50.144;8.176;2023-08-31T08:53:38;16.80;99.90
17442;DHT22;8838;50.144;8.176;2023-08-31T08:56:09;16.70;99.90
17442;DHT22;8838;50.144;8.176;2023-08-31T08:58:36;16.30;99.90
17442;DHT22;8838;50.144;8.176;2023-08-31T09:01:04;15.90;99.90
17442;DHT22;8838;50.144;8.176;2023-08-31T09:03:32;15.90;99.90
17442;DHT22;8838;50.144;8.176;2023-08-31T09:05:59;15.80;99.90
17442;DHT22;8838;50.144;8.176;2023-08-31T09:08:29;15.70;99.90
17442;DHT22;8838;50.144;8.176;2023-08-31T09:10:56;15.90;99.90
17442;DHT22;8838;50.144;8.176;2023-08-31T09:13:27;16.10;99.90
17442;DHT22;8838;50.144;8.176;2023-08-31T09:15:54;16.10;99.90
17442;DHT22;8838;50.144;8.176;2023-08-31T09:18:24;15.80;99.90
17442;DHT22;8838;50.144;8.176;2023-08-31T09:20:52;15.70;99.90
17442;DHT22;8838;50.144;8.176;2023-08-31T09:23:19;16.50;99.90
17442;DHT22;8838;50.144;8.176;2023-08-31T09:25:49;17.20;99.90
17442;DHT22;8838;50.144;8.176;2023-08-31T09:28:20;17.80;99.90
17442;DHT22;8838;50.144;8.176;2023-08-31T09:30:48;18.50;99.90
17442;DHT22;8838;50.144;8.176;2023-08-31T09:33:16;18.30;99.90
17442;DHT22;8838;50.144;8.176;2023-08-31T09:35:48;17.90;99.90
17442;DHT22;8838;50.144;8.176;2023-08-31T09:38:16;17.20;99.90
17442;DHT22;8838;50.144;8.176;2023-08-31T09:40:43;16.60;99.90
17442;DHT22;8838;50.144;8.176;2023-08-31T09:43:11;16.50;99.90
17442;DHT22;8838;50.144;8.176;2023-08-31T09:45:38;16.50;99.90
17442;DHT22;8838;50.144;8.176;2023-08-31T09:48:05;16.70;99.90
17442;DHT22;8838;50.144;8.176;2023-08-31T09:50:35;16.70;99.90
17442;DHT22;8838;50.144;8.176;2023-08-31T09:53:06;16.40;99.90
17442;DHT22;8838;50.144;8.176;2023-08-31T09:55:39;16.40;99.90
17442;DHT22;8838;50.144;8.176;2023-08-31T09:58:07;16.60;99.90
17442;DHT22;8838;50.144;8.176;2023-08-31T10:00:37;17.70;99.90
17442;DHT22;8838;50.144;8.176;2023-08-31T10:03:05;18.10;99.90
17442;DHT22;8838;50.144;8.176;2023-08-31T10:05:32;18.00;99.90
17442;DHT22;8838;50.144;8.176;2023-08-31T10:07:59;17.60;99.90
17442;DHT22;8838;50.144;8.176;2023-08-31T10:10:28;17.10;99.90
17442;DHT22;8838;50.144;8.176;2023-08-31T10:12:55;16.80;99.90
17442;DHT22;8838;50.144;8.176;2023-08-31T10:15:22;16.60;99.90
17442;DHT22;8838;50.144;8.176;2023-08-31T10:17:51;16.40;99.90
17442;DHT22;8838;50.144;8.176;2023-08-31T10:20:18;16.30;99.90
17442;DHT22;8838;50.144;8.176;2023-08-31T10:22:45;16.20;99.90
17442;DHT22;8838;50.144;8.176;2023-08-31T10:25:12;16.10;99.90
17442;DHT22;8838;50.144;8.176;2023-08-31T10:27:40;16.30;99.90
17442;DHT22;8838;50.144;8.176;2023-08-31T10:30:24;16.60;99.90
17442;DHT22;8838;50.144;8.176;2023-08-31T10:33:20;17.50;99.90
17442;DHT22;8838;50.144;8.176;2023-08-31T10:35:50;18.60;99.90
17442;DHT22;8838;50.144;8.176;2023-08-31T10:38:24;19.20;99.90
17442;DHT22;8838;50.144;8.176;2023-08-31T10:41:19;19.70;99.90
17442;DHT22;8838;50.144;8.176;2023-08-31T10:43:47;19.80;99.90
17442;DHT22;8838;50.144;8.176;2023-08-31T10:46:26;20.60;99.90
17442;DHT22;8838;50.144;8.176;2023-08-31T10:48:55;21.20;99.90
17442;DHT22;8838;50.144;8.176;2023-08-31T10:51:24;21.20;99.90
17442;DHT22;8838;50.144;8.176;2023-08-31T10:53:52;21.50;99.90
17442;DHT22;8838;50.144;8.176;2023-08-31T10:56:19;20.90;99.90
17442;DHT22;8838;50.144;8.176;2023-08-31T10:58:58;19.90;99.90
17442;DHT22;8838;50.144;8.176;2023-08-31T11:01:51;19.50;99.90
17442;DHT22;8838;50.144;8.176;2023-08-31T11:04:19;20.00;99.90
17442;DHT22;8838;50.144;8.176;2023-08-31T11:06:46;20.80;99.90
17442;DHT22;8838;50.144;8.176;2023-08-31T11:09:19;20.50;99.90
17442;DHT22;8838;50.144;8.176;2023-08-31T11:11:46;20.30;99.90
17442;DHT22;8838;50.144;8.176;2023-08-31T11:14:14;19.90;99.90
17442;DHT22;8838;50.144;8.176;2023-08-31T11:16:41;19.50;99.90
17442;DHT22;8838;50.144;8.176;2023-08-31T11:19:09;19.10;99.90
17442;DHT22;8838;50.144;8.176;2023-08-31T11:21:38;18.60;99.90
17442;DHT22;8838;50.144;8.176;2023-08-31T11:24:05;18.30;99.90
17442;DHT22;8838;50.144;8.176;2023-08-31T11:26:35;18.00;99.90
17442;DHT22;8838;50.144;8.176;2023-08-31T11:29:06;17.90;99.90
17442;DHT22;8838;50.144;8.176;2023-08-31T11:31:35;17.70;99.90
17442;DHT22;8838;50.144;8.176;2023-08-31T11:34:11;17.80;99.90
17442;DHT22;8838;50.144;8.176;2023-08-31T11:36:41;18.60;99.90
17442;DHT22;8838;50.144;8.176;2023-08-31T11:39:09;18.60;99.90
17442;DHT22;8838;50.144;8.176;2023-08-31T11:41:36;18.80;99.90
17442;DHT22;8838;50.144;8.176;2023-08-31T11:44:07;18.50;99.90
17442;DHT22;8838;50.144;8.176;2023-08-31T11:46:34;18.50;99.90
17442;DHT22;8838;50.144;8.176;2023-08-31T11:49:02;18.40;99.90
17442;DHT22;8838;50.144;8.176;2023-08-31T11:51:30;18.40;99.90
17442;DHT22;8838;50.144;8.176;2023-08-31T11:54:00;18.60;99.90
17442;DHT22;8838;50.144;8.176;2023-08-31T11:56:38;18.80;99.90
17442;DHT22;8838;50.144;8.176;2023-08-31T11:59:08;19.10;99.90
17442;DHT22;8838;50.144;8.176;2023-08-31T12:01:38;19.30;99.90
17442;DHT22;8838;50.144;8.176;2023-08-31T12:04:13;20.00;99.90
17442;DHT22;8838;50.144;8.176;2023-08-31T12:06:40;20.40;99.90
17442;DHT22;8838;50.144;8.176;2023-08-31T12:09:10;20.60;99.90
17442;DHT22;8838;50.144;8.176;2023-08-31T12:11:37;20.90;99.90
17442;DHT22;8838;50.144;8.176;2023-08-31T12:14:18;20.40;99.90
17442;DHT22;8838;50.144;8.176;2023-08-31T12:16:45;20.60;99.90
17442;DHT22;8838;50.144;8.176;2023-08-31T12:19:12;21.00;99.90
17442;DHT22;8838;50.144;8.176;2023-08-31T12:21:39;21.00;99.90
17442;DHT22;8838;50.144;8.176;2023-08-31T12:24:06;20.50;99.90
17442;DHT22;8838;50.144;8.176;2023-08-31T12:26:34;20.10;99.90
17442;DHT22;8838;50.144;8.176;2023-08-31T12:29:01;19.60;99.90
17442;DHT22;8838;50.144;8.176;2023-08-31T12:31:30;19.70;99.90
17442;DHT22;8838;50.144;8.176;2023-08-31T12:33:57;20.20;99.90
17442;DHT22;8838;50.144;8.176;2023-08-31T12:36:26;20.40;99.90
17442;DHT22;8838;50.144;8.176;2023-08-31T12:38:53;20.60;99.90
17442;DHT22;8838;50.144;8.176;2023-08-31T12:41:19;20.70;99.90
17442;DHT22;8838;50.144;8.176;2023-08-31T12:43:47;20.90;99.90
17442;DHT22;8838;50.144;8.176;2023-08-31T12:46:14;20.80;99.90
17442;DHT22;8838;50.144;8.176;2023-08-31T12:48:42;20.80;99.90
17442;DHT22;8838;50.144;8.176;2023-08-31T12:51:09;21.10;99.90
17442;DHT22;8838;50.144;8.176;2023-08-31T12:53:38;21.30;99.90
17442;DHT22;8838;50.144;8.176;2023-08-31T12:56:05;21.20;99.90
17442;DHT22;8838;50.144;8.176;2023-08-31T12:58:32;20.90;99.90
17442;DHT22;8838;50.144;8.176;2023-08-31T13:01:00;20.80;99.90
17442;DHT22;8838;50.144;8.176;2023-08-31T13:03:28;20.90;99.90
17442;DHT22;8838;50.144;8.176;2023-08-31T13:05:54;21.00;99.90
17442;DHT22;8838;50.144;8.176;2023-08-31T13:08:21;21.00;99.90
17442;DHT22;8838;50.144;8.176;2023-08-31T13:10:51;20.90;99.90
17442;DHT22;8838;50.144;8.176;2023-08-31T13:13:19;20.70;99.90
17442;DHT22;8838;50.144;8.176;2023-08-31T13:15:46;20.50;99.90
17442;DHT22;8838;50.144;8.176;2023-08-31T13:18:14;20.30;99.90
17442;DHT22;8838;50.144;8.176;2023-08-31T13:20:48;19.90;99.90
17442;DHT22;8838;50.144;8.176;2023-08-31T13:23:15;19.70;99.90
17442;DHT22;8838;50.144;8.176;2023-08-31T13:25:42;19.90;99.90
17442;DHT22;8838;50.144;8.176;2023-08-31T13:28:09;20.20;99.90
17442;DHT22;8838;50.144;8.176;2023-08-31T13:30:36;20.30;99.90
17442;DHT22;8838;50.144;8.176;2023-08-31T13:33:03;20.30;99.90
17442;DHT22;8838;50.144;8.176;2023-08-31T13:35:31;20.20;99.90
17442;DHT22;8838;50.144;8.176;2023-08-31T13:37:58;20.30;99.90
17442;DHT22;8838;50.144;8.176;2023-08-31T13:40:25;20.30;99.90
17442;DHT22;8838;50.144;8.176;2023-08-31T13:42:54;20.20;99.90
17442;DHT22;8838;50.144;8.176;2023-08-31T13:45:22;20.20;99.90
17442;DHT22;8838;50.144;8.176;2023-08-31T13:47:49;20.20;99.90
17442;DHT22;8838;50.144;8.176;2023-08-31T13:50:16;20.30;99.90
17442;DHT22;8838;50.144;8.176;2023-08-31T13:52:44;20.50;99.90
17442;DHT22;8838;50.144;8.176;2023-08-31T13:55:11;20.80;99.90
17442;DHT22;8838;50.144;8.176;2023-08-31T13:57:41;21.10;99.90
17442;DHT22;8838;50.144;8.176;2023-08-31T14:00:08;21.00;99.90
17442;DHT22;8838;50.144;8.176;2023-08-31T14:02:37;20.80;99.90
17442;DHT22;8838;50.144;8.176;2023-08-31T14:05:04;20.50;99.90
17442;DHT22;8838;50.144;8.176;2023-08-31T14:07:31;20.10;99.90
17442;DHT22;8838;50.144;8.176;2023-08-31T14:10:00;19.80;99.90
17442;DHT22;8838;50.144;8.176;2023-08-31T14:12:26;19.80;99.90
17442;DHT22;8838;50.144;8.176;2023-08-31T14:14:53;19.90;99.90
17442;DHT22;8838;50.144;8.176;2023-08-31T14:17:20;19.80;99.90
17442;DHT22;8838;50.144;8.176;2023-08-31T14:19:47;19.70;99.90
17442;DHT22;8838;50.144;8.176;2023-08-31T14:22:14;19.70;99.90
17442;DHT22;8838;50.144;8.176;2023-08-31T14:24:42;19.50;99.90
17442;DHT22;8838;50.144;8.176;2023-08-31T14:27:10;19.20;99.90
17442;DHT22;8838;50.144;8.176;2023-08-31T14:29:37;18.90;99.90
17442;DHT22;8838;50.144;8.176;2023-08-31T14:32:03;18.90;99.90
17442;DHT22;8838;50.144;8.176;2023-08-31T14:34:31;19.20;99.90
17442;DHT22;8838;50.144;8.176;2023-08-31T14:36:58;19.10;99.90
17442;DHT22;8838;50.144;8.176;2023-08-31T14:39:26;19.10;99.90
17442;DHT22;8838;50.144;8.176;2023-08-31T14:41:55;19.10;99.90
17442;DHT22;8838;50.144;8.176;2023-08-31T14:44:24;19.20;99.90
17442;DHT22;8838;50.144;8.176;2023-08-31T14:46:52;19.40;99.90
17442;DHT22;8838;50.144;8.176;2023-08-31T14:49:22;19.90;99.90
17442;DHT22;8838;50.144;8.176;2023-08-31T14:51:50;20.20;99.90
17442;DHT22;8838;50.144;8.176;2023-08-31T14:54:17;20.30;99.90
17442;DHT22;8838;50.144;8.176;2023-08-31T14:56:44;20.20;99.90
17442;DHT22;8838;50.144;8.176;2023-08-31T14:59:11;20.20;99.90
17442;DHT22;8838;50.144;8.176;2023-08-31T15:01:39;20.00;99.90
17442;DHT22;8838;50.144;8.176;2023-08-31T15:04:05;20.20;99.90
17442;DHT22;8838;50.144;8.176;2023-08-31T15:06:33;20.10;99.90
17442;DHT22;8838;50.144;8.176;2023-08-31T15:09:00;19.80;99.90
17442;DHT22;8838;50.144;8.176;2023-08-31T15:11:27;19.90;99.90
17442;DHT22;8838;50.144;8.176;2023-08-31T15:13:54;19.80;99.90
17442;DHT22;8838;50.144;8.176;2023-08-31T15:16:21;19.80;99.90
17442;DHT22;8838;50.144;8.176;2023-08-31T15:18:49;19.70;99.90
17442;DHT22;8838;50.144;8.176;2023-08-31T15:21:16;19.70;99.90
17442;DHT22;8838;50.144;8.176;2023-08-31T15:23:44;19.60;99.90
17442;DHT22;8838;50.144;8.176;2023-08-31T15:26:11;19.10;99.90
17442;DHT22;8838;50.144;8.176;2023-08-31T15:28:39;18.90;99.90
17442;DHT22;8838;50.144;8.176;2023-08-31T15:31:05;18.80;99.90
17442;DHT22;8838;50.144;8.176;2023-08-31T15:33:32;18.80;99.90
17442;DHT22;8838;50.144;8.176;2023-08-31T15:36:05;18.80;99.90
17442;DHT22;8838;50.144;8.176;2023-08-31T15:38:33;18.90;99.90
17442;DHT22;8838;50.144;8.176;2023-08-31T15:41:01;18.80;99.90
17442;DHT22;8838;50.144;8.176;2023-08-31T15:43:30;18.90;99.90
17442;DHT22;8838;50.144;8.176;2023-08-31T15:45:58;19.20;99.90
17442;DHT22;8838;50.144;8.176;2023-08-31T15:48:25;19.10;99.90
17442;DHT22;8838;50.144;8.176;2023-08-31T15:50:54;18.80;99.90